Time;durP1;ratioP1;P1;durP2;ratioP2;P2;SDS_P1;SDS_P2;PMS_P1;PMS_P2;Temp;Humidity;BMP_temperature;BMP_pressure;BME280_temperature;BME280_humidity;BME280_pressure;Samples;Min_cycle;Max_cycle;Signal;HPM_P1;HPM_P2
2022/08/13 00:01:51;;;;;;;6.20;5.33;;;19.70;99.90;;;;;;4187763;28;20205;-76
2022/08/13 00:03:53;;;;;;;5.90;5.30;;;19.70;99.90;;;;;;4189287;28;20599;-77
2022/08/13 00:05:55;;;;;;;7.57;5.43;;;19.70;99.90;;;;;;4185593;28;20218;-77
2022/08/13 00:07:56;;;;;;;6.10;5.50;;;19.70;99.90;;;;;;4188220;28;20305;-77
2022/08/13 00:09:59;;;;;;;5.60;5.10;;;19.60;99.90;;;;;;4185202;28;20244;-77
2022/08/13 00:14:24;;;;;;;6.83;6.03;;;19.60;99.90;;;;;;4186796;28;20226;-76
2022/08/13 00:16:26;;;;;;;7.00;6.00;;;19.60;99.90;;;;;;4187267;28;20239;-76
2022/08/13 00:18:29;;;;;;;6.70;5.57;;;19.60;99.90;;;;;;4188120;28;20316;-76
2022/08/13 00:20:38;;;;;;;5.97;5.37;;;19.50;99.90;;;;;;4188595;28;20259;-77
2022/08/13 00:22:40;;;;;;;7.57;5.87;;;19.50;99.90;;;;;;4188646;28;20259;-77
2022/08/13 00:24:41;;;;;;;6.87;5.70;;;19.50;99.90;;;;;;4184556;28;20765;-77
2022/08/13 00:26:43;;;;;;;6.47;5.60;;;19.50;99.90;;;;;;4187610;28;20565;-77
2022/08/13 00:28:49;;;;;;;7.07;5.87;;;19.50;99.90;;;;;;4191783;28;20308;-77
2022/08/13 00:30:52;;;;;;;6.57;5.90;;;19.50;99.90;;;;;;4187295;28;20216;-77
2022/08/13 00:32:54;;;;;;;6.77;5.37;;;19.40;99.90;;;;;;4182705;28;20232;-77
2022/08/13 00:34:56;;;;;;;6.10;5.50;;;19.40;99.90;;;;;;4185468;28;20692;-76
2022/08/13 00:36:57;;;;;;;6.23;5.40;;;19.40;99.90;;;;;;4188961;28;20225;-76
2022/08/13 00:38:59;;;;;;;6.90;6.20;;;19.30;99.90;;;;;;4179954;28;20847;-76
2022/08/13 00:41:02;;;;;;;6.37;5.77;;;19.40;99.90;;;;;;4187455;28;21190;-77
2022/08/13 00:43:05;;;;;;;6.47;5.87;;;19.30;99.90;;;;;;4185486;28;20253;-77
2022/08/13 00:45:09;;;;;;;6.90;6.20;;;19.30;99.90;;;;;;4185849;28;20211;-77
2022/08/13 00:49:32;;;;;;;6.77;6.07;;;19.30;99.90;;;;;;4190343;28;20213;-77
2022/08/13 00:51:35;;;;;;;7.20;6.07;;;19.30;99.90;;;;;;4188447;28;20260;-77
2022/08/13 00:53:38;;;;;;;6.37;5.50;;;19.30;99.90;;;;;;4181262;28;20237;-77
2022/08/13 00:55:40;;;;;;;6.80;5.97;;;19.30;99.90;;;;;;4188632;28;20240;-77
2022/08/13 00:57:44;;;;;;;6.53;5.60;;;19.20;99.90;;;;;;4188368;28;20260;-77
2022/08/13 00:59:46;;;;;;;6.53;5.83;;;19.20;99.90;;;;;;4184546;28;20584;-77
2022/08/13 01:01:50;;;;;;;7.50;5.60;;;19.20;99.90;;;;;;4191712;28;20207;-77
2022/08/13 01:03:53;;;;;;;7.00;5.87;;;19.20;99.90;;;;;;4193427;28;20234;-77
2022/08/13 01:05:59;;;;;;;6.43;5.73;;;19.20;99.90;;;;;;4192390;28;20598;-77
2022/08/13 01:08:01;;;;;;;6.93;5.87;;;19.10;99.90;;;;;;4185913;28;20564;-76
2022/08/13 01:10:04;;;;;;;7.50;5.83;;;19.10;99.90;;;;;;4186767;28;20231;-76
2022/08/13 01:12:09;;;;;;;7.13;5.87;;;19.10;99.90;;;;;;4187939;28;20667;-77
2022/08/13 01:14:12;;;;;;;6.77;5.67;;;19.10;99.90;;;;;;4179755;28;20258;-77
2022/08/13 01:16:14;;;;;;;6.57;5.90;;;19.10;99.90;;;;;;4187131;28;20303;-76
2022/08/13 01:18:19;;;;;;;6.17;5.57;;;19.00;99.90;;;;;;4184001;28;20224;-77
2022/08/13 01:20:26;;;;;;;6.97;5.63;;;19.00;99.90;;;;;;4182478;28;20203;-77
2022/08/13 01:22:30;;;;;;;6.93;5.83;;;19.00;99.90;;;;;;4186481;28;20289;-77
2022/08/13 01:24:32;;;;;;;7.07;6.27;;;19.00;99.90;;;;;;4183027;28;20227;-77
2022/08/13 01:26:35;;;;;;;8.17;6.03;;;19.00;99.90;;;;;;4186508;28;20203;-77
2022/08/13 01:28:38;;;;;;;6.67;5.80;;;18.90;99.90;;;;;;4184926;28;20243;-77
2022/08/13 01:30:45;;;;;;;6.87;5.90;;;19.00;99.90;;;;;;4183301;28;20211;-77
2022/08/13 01:32:48;;;;;;;9.17;5.87;;;18.90;99.90;;;;;;4184404;28;20449;-77
2022/08/13 01:34:50;;;;;;;6.10;5.50;;;18.90;99.90;;;;;;4188452;28;20206;-77
2022/08/13 01:36:54;;;;;;;6.73;5.90;;;18.90;99.90;;;;;;4187109;28;20211;-77
2022/08/13 01:39:04;;;;;;;7.83;6.53;;;18.90;99.90;;;;;;4185635;28;20238;-76
2022/08/13 01:41:08;;;;;;;6.70;5.70;;;18.90;99.90;;;;;;4189175;28;20255;-77
2022/08/13 01:43:11;;;;;;;7.23;6.00;;;18.90;99.90;;;;;;4186049;28;20229;-77
2022/08/13 01:45:14;;;;;;;6.83;6.13;;;18.90;99.90;;;;;;4185083;28;20298;-77
2022/08/13 01:52:07;;;;;;;7.50;6.50;;;18.80;99.90;;;;;;4181010;28;20224;-77
2022/08/13 01:54:11;;;;;;;7.13;6.40;;;18.80;99.90;;;;;;4182278;28;20227;-77
2022/08/13 01:56:16;;;;;;;6.70;6.00;;;18.80;99.90;;;;;;4186414;28;20238;-77
2022/08/13 01:58:22;;;;;;;6.30;5.70;;;18.80;99.90;;;;;;4188272;28;20233;-76
2022/08/13 02:00:25;;;;;;;7.43;5.93;;;18.70;99.90;;;;;;4189342;28;20250;-77
2022/08/13 02:02:28;;;;;;;6.97;6.13;;;18.70;99.90;;;;;;4186630;28;20268;-77
2022/08/13 02:04:32;;;;;;;6.90;6.20;;;18.70;99.90;;;;;;4182081;28;20230;-77
2022/08/13 02:06:34;;;;;;;7.20;5.77;;;18.70;99.90;;;;;;4188585;28;20574;-77
2022/08/13 02:08:39;;;;;;;8.37;6.30;;;18.70;99.90;;;;;;4180046;28;20227;-77
2022/08/13 02:10:45;;;;;;;6.87;6.17;;;18.70;99.90;;;;;;4190181;28;20285;-77
2022/08/13 02:12:47;;;;;;;6.90;6.20;;;18.60;99.90;;;;;;4183842;28;20219;-77
2022/08/13 02:14:49;;;;;;;7.07;5.80;;;18.60;99.90;;;;;;4187482;28;20207;-76
2022/08/13 02:16:54;;;;;;;6.57;5.93;;;18.60;99.90;;;;;;4184635;28;20260;-77
2022/08/13 02:18:56;;;;;;;6.87;6.17;;;18.60;99.90;;;;;;4186266;28;20287;-77
2022/08/13 02:21:01;;;;;;;7.30;6.20;;;18.60;99.90;;;;;;4188265;28;20208;-77
2022/08/13 02:23:06;;;;;;;6.50;5.73;;;18.60;99.90;;;;;;4187196;28;20317;-77
2022/08/13 02:25:12;;;;;;;7.50;6.13;;;18.50;99.90;;;;;;4184938;28;20235;-76
2022/08/13 02:27:15;;;;;;;7.23;6.50;;;18.50;99.90;;;;;;4185495;28;20254;-76
2022/08/13 02:29:19;;;;;;;6.57;5.87;;;18.50;99.90;;;;;;4191740;28;20206;-77
2022/08/13 02:31:21;;;;;;;6.67;5.90;;;18.50;99.90;;;;;;4191320;28;20281;-76
2022/08/13 02:33:23;;;;;;;7.37;6.40;;;18.50;99.90;;;;;;4191431;28;20310;-77
2022/08/13 02:35:26;;;;;;;7.57;6.27;;;18.50;99.90;;;;;;4192946;28;20303;-77
2022/08/13 02:37:32;;;;;;;7.13;6.10;;;18.50;99.90;;;;;;4195399;28;20218;-77
2022/08/13 02:39:34;;;;;;;10.70;5.73;;;18.40;99.90;;;;;;4181407;28;20695;-77
2022/08/13 02:41:38;;;;;;;6.90;6.20;;;18.40;99.90;;;;;;4187588;28;20293;-78
2022/08/13 02:43:46;;;;;;;7.07;5.80;;;18.40;99.90;;;;;;4187732;28;20258;-77
2022/08/13 02:45:49;;;;;;;7.77;5.90;;;18.40;99.90;;;;;;4187524;28;20221;-77
2022/08/13 02:47:52;;;;;;;6.53;5.77;;;18.40;99.90;;;;;;4183634;28;20256;-77
2022/08/13 02:49:54;;;;;;;7.20;6.13;;;18.40;99.90;;;;;;4181121;28;20234;-76
2022/08/13 02:51:56;;;;;;;6.37;5.73;;;18.30;99.90;;;;;;4187417;28;20281;-77
2022/08/13 02:54:00;;;;;;;7.20;6.07;;;18.30;99.90;;;;;;4178611;28;20685;-77
2022/08/13 02:56:02;;;;;;;7.53;6.83;;;18.30;99.90;;;;;;4184678;28;20205;-77
2022/08/13 02:58:05;;;;;;;7.37;6.40;;;18.20;99.90;;;;;;4178519;28;20218;-77
2022/08/13 03:00:10;;;;;;;7.70;5.97;;;18.20;99.90;;;;;;4192010;28;20220;-77
2022/08/13 03:02:12;;;;;;;7.27;6.10;;;18.10;99.90;;;;;;4184304;28;20304;-77
2022/08/13 03:04:14;;;;;;;7.27;6.20;;;18.10;99.90;;;;;;4191300;28;20226;-77
2022/08/13 03:06:19;;;;;;;7.33;6.33;;;18.10;99.90;;;;;;4185569;28;20206;-77
2022/08/13 03:08:21;;;;;;;6.30;5.67;;;18.10;99.90;;;;;;4184226;28;20233;-77
2022/08/13 03:10:27;;;;;;;6.40;5.73;;;18.00;99.90;;;;;;4186253;28;20233;-77
2022/08/13 03:12:30;;;;;;;6.63;5.80;;;18.00;99.90;;;;;;4186440;28;20213;-77
2022/08/13 03:14:33;;;;;;;7.03;5.97;;;18.00;99.90;;;;;;4191566;28;20193;-77
2022/08/13 03:16:39;;;;;;;6.30;5.70;;;18.00;99.90;;;;;;4185912;28;20213;-76
2022/08/13 03:18:41;;;;;;;6.83;6.13;;;18.00;99.90;;;;;;4184873;28;20256;-77
2022/08/13 03:20:43;;;;;;;7.57;6.17;;;17.90;99.90;;;;;;4187562;28;20723;-77
2022/08/13 03:22:51;;;;;;;8.13;5.80;;;17.80;99.90;;;;;;4184872;28;20718;-77
2022/08/13 03:24:52;;;;;;;6.17;5.57;;;17.90;99.90;;;;;;4186373;28;20603;-77
2022/08/13 03:26:54;;;;;;;7.10;5.93;;;17.90;99.90;;;;;;4184191;28;20221;-77
2022/08/13 03:28:56;;;;;;;6.83;5.23;;;17.80;99.90;;;;;;4186036;28;20292;-77
2022/08/13 03:30:58;;;;;;;7.53;6.00;;;17.80;99.90;;;;;;4186205;28;20194;-77
2022/08/13 03:33:06;;;;;;;6.77;5.93;;;17.80;99.90;;;;;;4177853;28;20763;-77
2022/08/13 03:35:11;;;;;;;7.33;5.60;;;17.80;99.90;;;;;;4186571;28;20696;-77
2022/08/13 03:37:14;;;;;;;5.93;5.33;;;17.80;99.90;;;;;;4185984;28;20577;-77
2022/08/13 03:39:19;;;;;;;6.30;5.70;;;17.80;99.90;;;;;;4185840;28;20240;-77
2022/08/13 03:41:21;;;;;;;6.13;4.80;;;17.80;99.90;;;;;;4183431;28;20214;-77
2022/08/13 03:43:23;;;;;;;7.83;5.13;;;17.70;99.90;;;;;;4187216;28;20312;-77
2022/08/13 03:45:26;;;;;;;5.90;5.30;;;17.70;99.90;;;;;;4185709;28;20305;-77
2022/08/13 03:47:27;;;;;;;6.33;5.57;;;17.70;99.90;;;;;;4189036;28;20452;-77
2022/08/13 03:49:34;;;;;;;6.33;5.27;;;17.70;99.90;;;;;;4189469;28;20220;-77
2022/08/13 03:51:36;;;;;;;6.03;5.30;;;17.70;99.90;;;;;;4188654;28;20229;-77
2022/08/13 03:53:39;;;;;;;5.63;5.13;;;17.60;99.90;;;;;;4188154;28;20668;-77
2022/08/13 03:55:42;;;;;;;5.70;5.07;;;17.60;99.90;;;;;;4186947;28;20213;-77
2022/08/13 03:57:44;;;;;;;6.10;5.20;;;17.60;99.90;;;;;;4185332;28;20213;-77
2022/08/13 03:59:48;;;;;;;6.07;5.47;;;17.60;99.90;;;;;;4191400;28;20217;-77
2022/08/13 04:01:53;;;;;;;6.10;5.17;;;17.60;99.90;;;;;;4191805;28;20275;-77
2022/08/13 04:03:55;;;;;;;7.67;5.67;;;17.60;99.90;;;;;;4191245;28;20237;-77
2022/08/13 04:06:00;;;;;;;7.07;5.70;;;17.60;99.90;;;;;;4198780;28;20233;-77
2022/08/13 04:08:03;;;;;;;5.93;4.67;;;17.50;99.90;;;;;;4191821;28;20707;-76
2022/08/13 04:10:05;;;;;;;6.20;5.07;;;17.50;99.90;;;;;;4188867;28;20216;-77
2022/08/13 04:12:10;;;;;;;5.37;4.83;;;17.50;99.90;;;;;;4188612;28;20237;-77
2022/08/13 04:14:12;;;;;;;5.67;4.90;;;17.50;99.90;;;;;;4188192;28;20224;-77
2022/08/13 04:16:16;;;;;;;6.03;5.43;;;17.50;99.90;;;;;;4195640;28;20210;-76
2022/08/13 04:18:18;;;;;;;6.20;5.20;;;17.50;99.90;;;;;;4184053;28;20225;-76
2022/08/13 04:20:20;;;;;;;7.17;4.80;;;17.50;99.90;;;;;;4189876;28;20762;-76
2022/08/13 04:22:23;;;;;;;5.73;4.63;;;17.50;99.90;;;;;;4192803;28;20276;-77
2022/08/13 04:24:27;;;;;;;5.37;4.77;;;17.50;99.90;;;;;;4185559;28;20225;-76
2022/08/13 04:26:30;;;;;;;5.37;4.80;;;17.50;99.90;;;;;;4188475;28;20217;-77
2022/08/13 04:28:33;;;;;;;5.43;4.87;;;17.70;99.90;;;;;;4185886;28;20202;-77
2022/08/13 04:30:38;;;;;;;6.83;5.20;;;17.40;99.90;;;;;;4187686;28;20854;-77
2022/08/13 04:32:43;;;;;;;5.70;4.80;;;17.40;99.90;;;;;;4189047;28;21156;-77
2022/08/13 04:34:45;;;;;;;6.37;4.80;;;17.40;99.90;;;;;;4185250;28;20199;-76
2022/08/13 04:36:48;;;;;;;6.87;4.90;;;17.40;99.90;;;;;;4181211;28;20234;-77
2022/08/13 04:38:51;;;;;;;5.90;5.30;;;17.40;99.90;;;;;;4188144;28;20259;-77
2022/08/13 04:40:53;;;;;;;5.60;4.87;;;17.50;99.90;;;;;;4180899;28;20297;-77
2022/08/13 04:42:55;;;;;;;6.10;5.03;;;17.40;99.90;;;;;;4185694;28;20241;-76
2022/08/13 04:44:57;;;;;;;5.87;5.10;;;17.50;99.90;;;;;;4183785;28;20245;-76
2022/08/13 04:46:59;;;;;;;6.53;4.87;;;17.50;99.90;;;;;;4189358;28;20218;-76
2022/08/13 04:49:01;;;;;;;5.50;4.57;;;17.40;99.90;;;;;;4190401;28;20282;-77
2022/08/13 04:51:05;;;;;;;5.23;4.53;;;17.50;99.90;;;;;;4188371;28;20255;-76
2022/08/13 04:53:09;;;;;;;5.40;4.53;;;17.50;99.90;;;;;;4193814;28;20640;-76
2022/08/13 04:55:12;;;;;;;5.53;4.57;;;17.50;99.90;;;;;;4189917;28;20213;-76
2022/08/13 04:57:14;;;;;;;5.33;4.77;;;17.50;99.90;;;;;;4193842;28;20568;-77
2022/08/13 04:59:16;;;;;;;5.30;4.43;;;17.50;99.90;;;;;;4188696;28;20211;-76
2022/08/13 05:01:18;;;;;;;5.77;4.67;;;17.50;99.90;;;;;;4189149;28;20214;-76
2022/08/13 05:03:22;;;;;;;5.30;4.80;;;17.50;99.90;;;;;;4192935;28;20234;-75
2022/08/13 05:05:24;;;;;;;4.83;4.23;;;17.60;99.90;;;;;;4188122;28;20885;-77
2022/08/13 05:07:26;;;;;;;4.73;4.07;;;17.60;99.90;;;;;;4187337;28;20217;-77
2022/08/13 05:09:28;;;;;;;6.20;4.80;;;17.60;99.90;;;;;;4189305;28;20198;-77
2022/08/13 05:11:32;;;;;;;5.53;4.87;;;17.60;99.90;;;;;;4184960;28;20214;-77
2022/08/13 05:13:36;;;;;;;5.27;4.50;;;17.60;99.90;;;;;;4179538;28;20219;-76
2022/08/13 05:15:39;;;;;;;5.23;4.60;;;17.60;99.90;;;;;;4188568;28;20655;-76
2022/08/13 05:17:43;;;;;;;5.10;4.60;;;17.60;99.90;;;;;;4187979;28;20206;-77
2022/08/13 05:19:47;;;;;;;5.50;4.67;;;17.60;99.90;;;;;;4185316;28;20206;-77
2022/08/13 05:21:49;;;;;;;4.90;4.40;;;17.60;99.90;;;;;;4186097;28;20206;-76
2022/08/13 05:23:54;;;;;;;6.50;4.67;;;17.70;99.90;;;;;;4187368;28;20227;-77
2022/08/13 05:25:58;;;;;;;5.10;4.60;;;17.70;99.90;;;;;;4186721;28;20597;-76
2022/08/13 05:28:01;;;;;;;5.63;4.40;;;17.70;99.90;;;;;;4195579;28;20210;-77
2022/08/13 05:30:06;;;;;;;5.53;4.43;;;17.70;99.90;;;;;;4187166;28;20582;-76
2022/08/13 05:32:10;;;;;;;5.73;4.97;;;17.70;99.90;;;;;;4187062;28;20206;-77
2022/08/13 05:34:12;;;;;;;5.57;4.50;;;17.70;99.90;;;;;;4187289;28;20230;-76
2022/08/13 05:36:14;;;;;;;8.50;4.60;;;17.70;99.90;;;;;;4187359;28;20229;-77
2022/08/13 05:38:22;;;;;;;5.70;4.70;;;17.70;99.90;;;;;;4185530;28;20221;-77
2022/08/13 05:40:24;;;;;;;6.87;4.63;;;17.70;99.90;;;;;;4187328;28;20209;-77
2022/08/13 05:42:25;;;;;;;5.33;4.63;;;17.80;99.90;;;;;;4185617;28;20261;-76
2022/08/13 05:44:32;;;;;;;6.07;4.87;;;17.80;99.90;;;;;;4180449;28;20238;-78
2022/08/13 05:46:37;;;;;;;5.33;4.20;;;17.80;99.90;;;;;;4188518;28;20206;-77
2022/08/13 05:48:42;;;;;;;4.77;4.27;;;17.80;99.90;;;;;;4186787;28;21194;-77
2022/08/13 05:50:43;;;;;;;4.83;4.33;;;17.80;99.90;;;;;;4184269;28;20232;-77
2022/08/13 05:52:46;;;;;;;5.33;4.83;;;17.80;99.90;;;;;;4186628;28;20297;-77
2022/08/13 05:54:48;;;;;;;5.30;4.77;;;17.90;99.90;;;;;;4184250;28;20199;-76
2022/08/13 05:56:50;;;;;;;5.37;4.40;;;17.90;99.90;;;;;;4185174;28;20210;-77
2022/08/13 05:58:53;;;;;;;5.00;4.50;;;17.90;99.90;;;;;;4185137;28;20210;-77
2022/08/13 06:03:25;;;;;;;5.13;4.57;;;17.90;99.90;;;;;;4185402;28;20237;-78
2022/08/13 06:05:27;;;;;;;5.60;4.80;;;17.90;99.90;;;;;;4183570;28;20248;-77
2022/08/13 06:07:29;;;;;;;5.73;4.77;;;18.00;99.90;;;;;;4184477;28;20209;-77
2022/08/13 06:09:31;;;;;;;4.93;4.40;;;18.00;99.90;;;;;;4186801;28;20601;-77
2022/08/13 06:11:34;;;;;;;5.20;4.67;;;18.00;99.90;;;;;;4186355;28;20208;-78
2022/08/13 06:13:38;;;;;;;5.20;4.70;;;18.10;99.90;;;;;;4189729;28;20231;-78
2022/08/13 06:15:42;;;;;;;5.40;4.63;;;18.10;99.90;;;;;;4186763;28;20202;-78
2022/08/13 06:17:49;;;;;;;5.43;4.90;;;18.10;99.90;;;;;;4182117;28;20256;-77
2022/08/13 06:19:52;;;;;;;6.47;5.13;;;18.20;99.90;;;;;;4184514;28;20226;-77
2022/08/13 06:21:59;;;;;;;5.30;4.80;;;18.20;99.90;;;;;;4184665;28;20202;-77
2022/08/13 06:24:05;;;;;;;5.60;4.90;;;18.20;99.90;;;;;;4187858;28;20237;-77
2022/08/13 06:26:09;;;;;;;6.13;5.23;;;18.20;99.90;;;;;;4184441;28;20217;-77
2022/08/13 06:28:15;;;;;;;5.83;4.83;;;18.30;99.90;;;;;;4181912;28;20230;-76
2022/08/13 06:30:18;;;;;;;5.20;4.57;;;18.30;99.90;;;;;;4188887;28;20211;-76
2022/08/13 06:32:23;;;;;;;5.50;4.90;;;18.30;99.90;;;;;;4186543;28;20216;-77
2022/08/13 06:34:35;;;;;;;6.00;4.67;;;18.40;99.90;;;;;;4178407;28;20290;-77
2022/08/13 06:36:37;;;;;;;5.83;4.60;;;18.50;99.90;;;;;;4189150;28;20265;-77
2022/08/13 06:38:43;;;;;;;5.57;4.73;;;18.50;99.90;;;;;;4187253;28;20278;-76
2022/08/13 06:40:46;;;;;;;4.43;4.00;;;18.50;99.90;;;;;;4186525;28;20285;-77
2022/08/13 06:42:48;;;;;;;4.73;4.23;;;18.50;99.90;;;;;;4187274;28;20230;-77
2022/08/13 06:44:54;;;;;;;4.90;4.40;;;18.60;99.90;;;;;;4186317;28;20203;-76
2022/08/13 06:46:56;;;;;;;4.87;4.23;;;18.60;99.90;;;;;;4185630;28;20712;-77
2022/08/13 06:49:00;;;;;;;4.60;4.17;;;18.70;99.90;;;;;;4187247;28;20294;-76
2022/08/13 06:51:06;;;;;;;4.80;4.30;;;18.70;99.90;;;;;;4179432;28;20214;-77
2022/08/13 06:53:10;;;;;;;4.53;4.03;;;18.80;99.90;;;;;;4184067;28;20242;-78
2022/08/13 06:55:12;;;;;;;4.87;4.30;;;18.80;99.90;;;;;;4184493;28;20724;-77
2022/08/13 06:57:14;;;;;;;4.90;4.27;;;18.80;99.90;;;;;;4184560;28;20222;-74
2022/08/13 06:59:19;;;;;;;5.77;4.43;;;18.90;99.90;;;;;;4183736;28;20235;-75
2022/08/13 07:01:23;;;;;;;4.87;4.20;;;18.90;99.90;;;;;;4188244;28;20204;-74
2022/08/13 07:03:27;;;;;;;4.90;4.40;;;19.00;99.90;;;;;;4182453;28;20322;-75
2022/08/13 07:05:33;;;;;;;5.33;4.40;;;19.00;99.90;;;;;;4184960;28;20265;-76
2022/08/13 07:07:43;;;;;;;4.97;4.30;;;19.10;99.90;;;;;;4182295;28;20234;-75
2022/08/13 07:09:46;;;;;;;4.83;4.20;;;19.10;99.90;;;;;;4184206;28;20228;-75
2022/08/13 07:11:48;;;;;;;6.07;4.43;;;19.20;99.90;;;;;;4185632;28;20252;-75
2022/08/13 07:13:52;;;;;;;4.17;3.73;;;19.20;99.90;;;;;;4186017;28;20236;-75
2022/08/13 07:15:54;;;;;;;5.20;4.50;;;19.30;99.90;;;;;;4183839;28;20243;-74
2022/08/13 07:17:57;;;;;;;4.70;4.03;;;19.30;99.90;;;;;;4177664;28;20227;-76
2022/08/13 07:19:59;;;;;;;4.43;4.00;;;19.40;99.90;;;;;;4188309;28;20234;-75
2022/08/13 07:22:06;;;;;;;4.53;4.10;;;19.40;99.90;;;;;;4186126;28;20206;-75
2022/08/13 07:24:17;;;;;;;5.13;4.30;;;19.50;99.90;;;;;;4188029;28;20262;-76
2022/08/13 07:26:24;;;;;;;4.60;4.17;;;19.40;99.90;;;;;;4189290;28;20658;-77
2022/08/13 07:28:28;;;;;;;4.83;4.33;;;19.60;99.90;;;;;;4185129;28;20274;-76
2022/08/13 07:30:30;;;;;;;4.87;4.37;;;19.70;99.90;;;;;;4188845;28;20240;-77
2022/08/13 07:32:36;;;;;;;6.40;4.93;;;19.70;99.90;;;;;;4188582;28;20225;-77
2022/08/13 07:34:38;;;;;;;4.90;4.40;;;19.80;99.90;;;;;;4189261;28;20635;-77
2022/08/13 07:36:40;;;;;;;5.47;4.27;;;19.80;99.90;;;;;;4184425;28;20202;-75
2022/08/13 07:38:42;;;;;;;6.67;5.00;;;19.90;99.90;;;;;;4188212;28;20233;-76
2022/08/13 07:40:50;;;;;;;5.23;4.70;;;20.00;99.90;;;;;;4182603;28;20216;-76
2022/08/13 07:42:53;;;;;;;6.00;4.97;;;20.10;99.90;;;;;;4186953;28;20690;-77
2022/08/13 07:44:55;;;;;;;5.40;4.90;;;20.10;99.90;;;;;;4187538;28;20263;-77
2022/08/13 07:47:01;;;;;;;5.13;4.63;;;20.20;99.90;;;;;;4190022;28;20246;-77
2022/08/13 07:49:03;;;;;;;5.60;5.00;;;20.20;99.90;;;;;;4192021;28;20296;-75
2022/08/13 07:51:08;;;;;;;6.97;5.73;;;20.30;99.90;;;;;;4188804;28;20644;-76
2022/08/13 07:53:12;;;;;;;5.97;5.30;;;20.40;99.90;;;;;;4190212;28;20230;-75
2022/08/13 07:55:19;;;;;;;5.87;5.13;;;20.40;99.90;;;;;;4188732;28;20259;-77
2022/08/13 07:57:25;;;;;;;5.73;5.10;;;20.50;99.90;;;;;;4188464;28;20296;-76
2022/08/13 07:59:29;;;;;;;6.10;5.50;;;20.60;99.90;;;;;;4190015;28;20195;-77
2022/08/13 08:01:34;;;;;;;5.77;5.17;;;20.70;99.90;;;;;;4184346;28;20255;-76
2022/08/13 08:03:40;;;;;;;5.97;5.37;;;20.70;99.90;;;;;;4186263;28;20221;-76
2022/08/13 08:05:45;;;;;;;7.27;5.80;;;20.80;99.90;;;;;;4189025;28;20221;-77
2022/08/13 08:07:47;;;;;;;5.97;4.90;;;20.90;99.90;;;;;;4183341;28;20276;-77
2022/08/13 08:09:50;;;;;;;5.97;5.37;;;21.00;99.90;;;;;;4185077;28;20215;-76
2022/08/13 08:14:18;;;;;;;6.30;5.60;;;21.10;99.90;;;;;;4184586;28;20715;-76
2022/08/13 08:16:21;;;;;;;6.60;5.63;;;21.20;99.90;;;;;;4186783;28;20203;-76
2022/08/13 08:18:28;;;;;;;6.20;5.60;;;21.30;99.90;;;;;;4190157;28;20658;-76
2022/08/13 08:20:30;;;;;;;6.23;5.63;;;21.40;99.90;;;;;;4192713;28;20232;-76
2022/08/13 08:22:33;;;;;;;6.63;5.57;;;21.50;99.90;;;;;;4196662;28;20247;-76
2022/08/13 08:24:35;;;;;;;5.87;5.17;;;21.60;99.90;;;;;;4194027;28;20209;-76
2022/08/13 08:26:37;;;;;;;5.97;5.37;;;21.70;99.90;;;;;;4190581;28;20222;-76
2022/08/13 08:28:42;;;;;;;7.10;5.53;;;21.80;99.90;;;;;;4190175;28;20198;-77
2022/08/13 08:30:45;;;;;;;6.00;4.83;;;21.90;99.90;;;;;;4193407;28;20224;-77
2022/08/13 08:32:53;;;;;;;6.00;5.40;;;22.00;99.90;;;;;;4200598;28;20237;-73
2022/08/13 08:34:55;;;;;;;5.93;5.27;;;22.20;99.90;;;;;;4200160;28;20207;-76
2022/08/13 08:36:57;;;;;;;5.70;5.20;;;22.30;99.90;;;;;;4199424;28;20226;-75
2022/08/13 08:43:39;;;;;;;5.87;5.27;;;22.80;99.90;;;;;;4198822;28;20287;-76
2022/08/13 08:45:41;;;;;;;5.43;4.70;;;22.90;99.90;;;;;;4203122;28;20192;-74
2022/08/13 08:47:46;;;;;;;5.50;4.80;;;23.10;99.90;;;;;;4209210;28;20231;-73
2022/08/13 08:49:49;;;;;;;5.00;4.50;;;23.10;99.90;;;;;;4202110;28;20235;-74
2022/08/13 08:51:55;;;;;;;5.53;4.73;;;23.20;99.90;;;;;;4203174;28;20216;-74
2022/08/13 08:53:57;;;;;;;5.97;5.37;;;23.30;99.90;;;;;;4202709;28;20222;-75
2022/08/13 08:56:01;;;;;;;5.73;5.10;;;23.30;99.90;;;;;;4201334;28;20254;-78
2022/08/13 08:58:04;;;;;;;7.17;5.60;;;23.50;99.90;;;;;;4200225;28;20228;-75
2022/08/13 09:00:14;;;;;;;6.20;5.60;;;23.50;99.90;;;;;;4205653;28;20224;-74
2022/08/13 09:02:22;;;;;;;6.43;5.70;;;23.50;99.90;;;;;;4199134;28;20935;-75
2022/08/13 09:04:28;;;;;;;7.80;5.87;;;23.70;99.90;;;;;;4198189;28;20221;-74
2022/08/13 09:06:31;;;;;;;6.47;5.60;;;23.80;99.90;;;;;;4187564;28;20760;-75
2022/08/13 09:08:36;;;;;;;6.47;5.47;;;23.90;99.90;;;;;;4188251;28;20217;-75
2022/08/13 09:10:39;;;;;;;5.67;5.17;;;24.00;99.90;;;;;;4187506;28;20305;-76
2022/08/13 09:12:43;;;;;;;6.77;5.70;;;24.10;99.90;;;;;;4191627;28;20202;-77
2022/08/13 09:14:47;;;;;;;5.50;5.00;;;24.20;99.90;;;;;;4188266;28;20236;-82
2022/08/13 09:16:50;;;;;;;5.57;5.00;;;24.20;99.90;;;;;;4188761;28;20225;-76
2022/08/13 09:18:54;;;;;;;5.80;5.17;;;24.40;99.90;;;;;;4188224;28;20230;-77
2022/08/13 09:20:58;;;;;;;6.10;4.73;;;24.50;99.90;;;;;;4189282;28;20232;-76
2022/08/13 09:23:04;;;;;;;5.40;4.90;;;24.70;99.90;;;;;;4194751;28;20264;-77
2022/08/13 09:25:07;;;;;;;6.03;5.17;;;24.80;99.90;;;;;;4196762;28;20209;-80
2022/08/13 09:27:11;;;;;;;5.70;5.20;;;25.00;99.90;;;;;;4193111;28;20322;-79
2022/08/13 09:29:14;;;;;;;5.70;5.20;;;25.10;99.90;;;;;;4207700;28;20209;-79
2022/08/13 09:31:16;;;;;;;5.27;4.77;;;25.20;99.90;;;;;;4192954;28;20218;-78
2022/08/13 09:33:22;;;;;;;5.57;4.97;;;25.40;99.90;;;;;;4184261;28;20222;-77
2022/08/13 09:35:26;;;;;;;6.20;5.60;;;25.50;99.90;;;;;;4195313;28;20206;-81
2022/08/13 09:37:31;;;;;;;7.20;5.13;;;25.60;99.90;;;;;;4189022;28;20659;-80
2022/08/13 09:39:36;;;;;;;5.90;5.33;;;25.60;99.90;;;;;;4190569;28;20605;-83
2022/08/13 09:41:42;;;;;;;5.63;5.13;;;25.70;99.50;;;;;;4192883;28;20714;-83
2022/08/13 09:43:44;;;;;;;5.20;4.70;;;25.80;98.00;;;;;;4190042;28;20700;-79
2022/08/13 09:45:46;;;;;;;5.27;4.77;;;25.90;98.60;;;;;;4193990;28;20217;-81
2022/08/13 09:47:48;;;;;;;5.23;4.73;;;25.90;99.00;;;;;;4194239;28;20205;-83
2022/08/13 09:49:50;;;;;;;5.90;5.00;;;26.00;98.40;;;;;;4191409;28;20211;-83
2022/08/13 09:51:53;;;;;;;6.47;5.13;;;26.00;97.80;;;;;;4188059;28;20209;-80
2022/08/13 09:53:57;;;;;;;5.53;4.93;;;26.00;98.00;;;;;;4191054;28;20619;-83
2022/08/13 09:55:59;;;;;;;5.57;5.07;;;26.00;96.00;;;;;;4191140;28;20203;-83
2022/08/13 09:58:04;;;;;;;5.47;4.90;;;26.00;97.10;;;;;;4193148;28;20723;-80
2022/08/13 10:00:08;;;;;;;5.90;5.30;;;26.00;96.00;;;;;;4189045;28;20209;-81
2022/08/13 10:02:12;;;;;;;5.20;4.70;;;26.00;96.60;;;;;;4189665;28;20206;-80
2022/08/13 10:04:18;;;;;;;6.70;5.03;;;26.00;97.10;;;;;;4192411;28;20234;-82
2022/08/13 10:06:21;;;;;;;5.10;4.50;;;26.00;96.90;;;;;;4185908;28;20719;-80
2022/08/13 10:08:24;;;;;;;6.23;5.13;;;26.10;96.70;;;;;;4188310;28;20207;-81
2022/08/13 10:10:27;;;;;;;5.30;4.80;;;26.10;96.80;;;;;;4189011;28;20739;-82
2022/08/13 10:12:29;;;;;;;5.17;4.67;;;26.10;95.00;;;;;;4187461;28;20206;-83
2022/08/13 10:14:32;;;;;;;5.93;5.00;;;26.20;96.40;;;;;;4183101;28;20309;-81
2022/08/13 10:16:35;;;;;;;5.70;5.13;;;26.20;96.30;;;;;;4192701;28;20202;-82
2022/08/13 10:18:37;;;;;;;5.13;4.63;;;26.20;94.00;;;;;;4190117;28;20208;-82
2022/08/13 10:20:45;;;;;;;5.37;4.87;;;26.20;96.60;;;;;;4190676;28;20194;-80
2022/08/13 10:22:47;;;;;;;5.27;4.77;;;26.20;96.20;;;;;;4191407;28;20233;-80
2022/08/13 10:24:49;;;;;;;6.40;4.87;;;26.30;95.20;;;;;;4192666;28;20213;-79
2022/08/13 10:26:53;;;;;;;5.33;4.83;;;26.30;92.20;;;;;;4190751;28;20249;-82
2022/08/13 10:28:55;;;;;;;5.57;5.03;;;26.30;91.90;;;;;;4188731;28;20218;-83
2022/08/13 10:30:57;;;;;;;6.97;5.80;;;26.40;95.80;;;;;;4198596;28;20206;-80
2022/08/13 10:32:59;;;;;;;5.90;5.33;;;26.40;94.80;;;;;;4193247;28;20236;-81
2022/08/13 10:35:01;;;;;;;5.97;5.37;;;26.60;95.20;;;;;;4189311;28;20206;-83
2022/08/13 10:37:03;;;;;;;5.50;5.00;;;26.50;94.10;;;;;;4187841;28;20201;-82
2022/08/13 10:39:07;;;;;;;5.93;5.33;;;26.60;92.80;;;;;;4188520;28;20221;-82
2022/08/13 10:41:09;;;;;;;6.60;6.00;;;26.70;94.40;;;;;;4194747;28;20287;-80
2022/08/13 10:43:13;;;;;;;6.10;5.47;;;26.70;94.70;;;;;;4192810;28;20760;-80
2022/08/13 10:45:15;;;;;;;7.20;5.23;;;26.80;94.70;;;;;;4194405;28;20213;-82
2022/08/13 10:47:17;;;;;;;6.37;5.67;;;26.90;94.30;;;;;;4189128;28;20803;-81
2022/08/13 10:49:19;;;;;;;5.73;5.20;;;26.90;91.60;;;;;;4189860;28;20288;-84
2022/08/13 10:51:24;;;;;;;5.87;5.27;;;26.90;90.40;;;;;;4186332;28;20209;-83
2022/08/13 10:55:45;;;;;;;6.00;5.40;;;27.00;90.20;;;;;;4191537;28;20202;-82
2022/08/13 10:57:48;;;;;;;5.50;5.00;;;27.00;90.20;;;;;;4183466;28;20202;-81
2022/08/13 10:59:51;;;;;;;5.33;4.83;;;27.10;89.60;;;;;;4188408;28;20206;-81
2022/08/13 11:01:53;;;;;;;5.57;5.07;;;27.10;89.40;;;;;;4187931;28;20206;-83
2022/08/13 11:04:02;;;;;;;5.73;5.13;;;27.20;87.20;;;;;;4189660;28;20222;-82
2022/08/13 11:06:06;;;;;;;5.20;4.70;;;27.20;88.30;;;;;;4184236;28;20267;-82